TimePDT,TemperatureF,Dew PointF,Humidity,Sea Level PressureIn,VisibilityMPH,Wind Direction,Wind SpeedMPH,Gust SpeedMPH,PrecipitationIn,Events,Conditions,WindDirDegrees,DateUTC
12:56 AM,46.0,17.1,31,29.94,10.0,Calm,Calm,-,N/A,,Clear,0,2012-10-10 07:56:00
1:56 AM,41.0,15.1,35,29.96,10.0,WNW,3.5,-,N/A,,Clear,290,2012-10-10 08:56:00
2:56 AM,41.0,18.0,40,29.96,10.0,Calm,Calm,-,N/A,,Clear,0,2012-10-10 09:56:00
3:56 AM,42.1,19.9,41,29.95,10.0,ENE,3.5,-,N/A,,Clear,60,2012-10-10 10:56:00
4:56 AM,41.0,18.0,40,29.96,10.0,ENE,5.8,-,N/A,,Clear,70,2012-10-10 11:56:00
5:56 AM,39.0,16.0,39,29.99,10.0,ENE,4.6,-,N/A,,Clear,60,2012-10-10 12:56:00
6:56 AM,37.9,15.1,39,30.02,10.0,ENE,5.8,-,N/A,,Scattered Clouds,60,2012-10-10 13:56:00
7:56 AM,39.9,14.0,35,30.04,7.0,East,3.5,-,N/A,,Clear,100,2012-10-10 14:56:00
8:56 AM,46.9,16.0,29,30.03,7.0,ENE,3.5,-,N/A,,Clear,70,2012-10-10 15:56:00
9:56 AM,55.9,16.0,21,30.01,10.0,Calm,Calm,-,N/A,,Clear,0,2012-10-10 16:56:00
10:56 AM,64.9,19.0,17,29.96,10.0,NE,3.5,-,N/A,,Clear,40,2012-10-10 17:56:00
11:56 AM,70.0,21.0,16,29.92,9.0,Calm,Calm,-,N/A,,Clear,0,2012-10-10 18:56:00
12:56 PM,73.0,25.0,17,29.90,10.0,WSW,6.9,-,N/A,,Clear,250,2012-10-10 19:56:00
1:56 PM,75.0,25.0,16,29.88,10.0,Variable,3.5,-,N/A,,Clear,0,2012-10-10 20:56:00
2:56 PM,73.9,25.0,16,29.86,10.0,Variable,4.6,-,N/A,,Partly Cloudy,0,2012-10-10 21:56:00
3:56 PM,75.9,26.1,16,29.83,10.0,West,3.5,-,N/A,,Scattered Clouds,270,2012-10-10 22:56:00
4:56 PM,73.9,26.1,17,29.83,10.0,West,4.6,-,N/A,,Mostly Cloudy,260,2012-10-10 23:56:00
5:56 PM,71.1,27.0,19,29.84,10.0,NNE,3.5,-,N/A,,Clear,30,2012-10-11 00:56:00
6:56 PM,63.0,26.1,25,29.88,10.0,Calm,Calm,-,N/A,,Clear,0,2012-10-11 01:56:00
7:56 PM,64.0,39.0,40,29.89,10.0,South,19.6,-,N/A,,Partly Cloudy,170,2012-10-11 02:56:00
8:56 PM,59.0,37.9,46,29.91,10.0,West,9.2,-,N/A,,Clear,260,2012-10-11 03:56:00
9:56 PM,62.1,37.0,39,29.88,10.0,WSW,9.2,-,N/A,,Clear,250,2012-10-11 04:56:00
10:56 PM,54.0,36.0,51,29.89,10.0,Calm,Calm,-,N/A,,Clear,0,2012-10-11 05:56:00
11:56 PM,51.1,35.1,54,29.88,10.0,Calm,Calm,-,N/A,,Clear,0,2012-10-11 06:56:00